Plain City, OH (43064)

8:55 PM EST on January 25, 2015 (GMT -0500)
StormOhio | Change Station
CLOSE
Current Station
Personal Weather Station
Location: Plain City, OH
Elevation: 928 ft
Nearby Weather Stations
Active Advisory: Winter Weather Advisory Active Notice: Public Information Statement

Elev 928 ft 40.10 °N, 83.26 °W | Updated 4 seconds ago

Snow
Snow
25.8 °F
Feels Like 21 °F
N
4.0
Wind Variable Wind from NNE
Gusts 6.0 mph

Today
High -- | Low -- °F
--% Chance of Precip.
Yesterday
High -- | Low -- °F
Precip. -- in
7:47 AM 5:43 PM
Waxing Crescent, 38% visible
Pressure 29.78 in
Visibility 1.8 miles
Clouds Overcast 1200 ft
Windchill 21 °F
Dew Point 25 °F
Humidity 95%
Rainfall 0.11 in
Snow Depth Not available.
UV 0 out of 12
Pollen .10 out of 12
Air Quality Not available.
Flu Activity Not available.
METAR KMRT 260134Z AUTO 00000KT 1 3/4SM OVC012 M05/M06 A2978 RMK AO2 P0001 T10461060

More Conditions Fewer Conditions

Pressure 29.78 in
Visibility 1.8 miles
Clouds Overcast 1200 ft
Windchill 21 °F
Dew Point 25 °F
Humidity 95%
Rainfall 0.11 in
Snow Depth Not available.
UV 0 out of 12
Pollen .10 out of 12
Air Quality Not available.
Flu Activity Not available.
METAR KMRT 260134Z AUTO 00000KT 1 3/4SM OVC012 M05/M06 A2978 RMK AO2 P0001 T10461060

More Conditions Fewer Conditions

10-Day Weather Forecast

Almanac

Astronomy

Jan. 25, 2015 Rise Set
Actual Time
Civil Twilight
Nautical Twilight
Astronomical Twilight
Moon
Length of Visible Light
Length of Day
Tomorrow will be .
, % of the Moon is Illuminated

Today's Extremes

State Highs State Lows

Community

WunderPhotos

Upload Photos

1,790,045 photos uploaded!

WunderBlogs® & News

Nearby

Air Quality

  Air Quality AQ Index Pollutant
Not available.

Snow Depth

Station Depth Elevation

Earthquake Activity

City Distance Mag. Time & Date
Minimum magnitude displayed is 2.5.

Coastal Water Temperatures

Place Temperature

Nearby Weather Stations